Time;durP1;ratioP1;P1;durP2;ratioP2;P2;SDS_P1;SDS_P2;PMS_P1;PMS_P2;Temp;Humidity;BMP_temperature;BMP_pressure;BME280_temperature;BME280_humidity;BME280_pressure;Samples;Min_cycle;Max_cycle;Signal;HPM_P1;HPM_P2
2024/04/26 00:00:55;;;;;;;45.72;17.65;;;0.40;99.90;;;;;;6431157;22;20006;-82
2024/04/26 00:03:21;;;;;;;35.38;17.08;;;0.40;99.90;;;;;;6475556;22;20017;-82
2024/04/26 00:05:47;;;;;;;33.22;16.15;;;0.40;99.90;;;;;;6475012;22;20010;-82
2024/04/26 00:08:16;;;;;;;34.30;18.25;;;0.30;99.90;;;;;;6431832;22;20479;-82
2024/04/26 00:10:43;;;;;;;41.08;20.77;;;0.30;99.90;;;;;;6430117;22;20016;-84
2024/04/26 00:13:08;;;;;;;35.28;16.63;;;0.30;99.90;;;;;;6475447;22;20349;-83
2024/04/26 00:15:34;;;;;;;38.10;17.30;;;0.30;99.90;;;;;;6431013;22;20010;-84
2024/04/26 00:17:59;;;;;;;37.72;15.52;;;0.30;99.90;;;;;;6474810;22;20002;-82
2024/04/26 00:20:25;;;;;;;37.70;17.15;;;0.30;99.90;;;;;;6431142;22;20006;-82
2024/04/26 00:22:51;;;;;;;32.78;14.30;;;0.30;99.90;;;;;;6455153;22;20080;-82
2024/04/26 00:25:16;;;;;;;27.52;16.00;;;0.30;99.90;;;;;;6422737;22;20006;-83
2024/04/26 00:27:45;;;;;;;28.23;14.68;;;0.30;99.90;;;;;;6469420;22;20024;-83
2024/04/26 00:30:11;;;;;;;30.90;14.60;;;0.30;99.90;;;;;;6475501;22;20002;-84
2024/04/26 00:32:37;;;;;;;31.45;14.88;;;0.30;99.90;;;;;;6475473;22;19998;-81
2024/04/26 00:35:03;;;;;;;28.70;15.25;;;0.30;99.90;;;;;;6476212;22;20305;-80
2024/04/26 00:37:28;;;;;;;28.58;14.15;;;0.30;99.90;;;;;;6430614;22;20017;-81
2024/04/26 00:39:54;;;;;;;32.42;15.27;;;0.30;99.90;;;;;;6475530;22;20020;-82
2024/04/26 00:42:20;;;;;;;37.92;16.20;;;0.20;99.90;;;;;;6475304;22;20010;-82
2024/04/26 00:44:46;;;;;;;31.70;13.75;;;0.30;99.90;;;;;;6474894;22;20093;-82
2024/04/26 00:47:11;;;;;;;30.77;15.02;;;0.30;99.90;;;;;;6423225;22;19999;-82
2024/04/26 00:49:37;;;;;;;31.55;15.45;;;0.30;99.90;;;;;;6470836;22;20037;-82
2024/04/26 00:52:04;;;;;;;32.15;14.32;;;0.30;99.90;;;;;;6475036;22;20045;-85
2024/04/26 00:54:30;;;;;;;29.30;13.85;;;0.30;99.90;;;;;;6475341;22;20006;-84
2024/04/26 00:56:59;;;;;;;28.98;14.38;;;0.30;99.90;;;;;;6475221;22;20024;-85
2024/04/26 00:59:27;;;;;;;32.22;13.48;;;0.20;99.90;;;;;;6422429;22;19998;-84
2024/04/26 01:01:53;;;;;;;30.65;14.10;;;0.20;99.90;;;;;;6402707;22;20006;-84
2024/04/26 01:04:19;;;;;;;27.73;13.55;;;0.10;99.90;;;;;;6422600;22;20017;-84
2024/04/26 01:06:45;;;;;;;29.73;15.25;;;0.10;99.90;;;;;;6472249;22;20002;-84
2024/04/26 01:09:11;;;;;;;31.40;15.00;;;0.10;99.90;;;;;;6475039;22;20008;-83
2024/04/26 01:11:36;;;;;;;43.28;20.58;;;0.10;99.90;;;;;;6475383;22;20364;-84
2024/04/26 01:14:02;;;;;;;37.53;18.65;;;0.10;99.90;;;;;;6431345;22;19998;-84
2024/04/26 01:16:28;;;;;;;32.53;17.77;;;0.00;99.90;;;;;;6475098;22;20055;-83
2024/04/26 01:18:54;;;;;;;36.50;16.38;;;0.00;99.90;;;;;;6430514;22;20014;-83
2024/04/26 01:21:21;;;;;;;24.95;14.45;;;0.00;99.90;;;;;;6475124;22;20038;-83
2024/04/26 01:23:46;;;;;;;24.17;13.00;;;0.00;99.90;;;;;;6474904;22;20012;-82
2024/04/26 01:26:12;;;;;;;28.85;13.95;;;0.00;99.90;;;;;;6475216;22;19998;-82
2024/04/26 01:28:38;;;;;;;29.92;13.80;;;0.00;99.90;;;;;;6475032;22;20005;-82
2024/04/26 01:31:04;;;;;;;26.20;12.38;;;0.00;99.90;;;;;;6428323;22;20010;-83
2024/04/26 01:33:30;;;;;;;28.95;14.57;;;-0.10;99.90;;;;;;6474930;22;20018;-84
2024/04/26 01:35:55;;;;;;;39.90;18.80;;;-0.10;99.90;;;;;;6474345;22;20470;-83
2024/04/26 01:38:21;;;;;;;50.45;20.83;;;-0.10;99.90;;;;;;6473206;22;20746;-81
2024/04/26 01:40:47;;;;;;;97.88;35.97;;;-0.10;99.90;;;;;;6475434;22;20309;-88
2024/04/26 01:43:12;;;;;;;67.70;29.50;;;-0.20;99.90;;;;;;6474386;22;20052;-88
2024/04/26 01:45:38;;;;;;;31.73;17.30;;;-0.20;99.90;;;;;;6474472;22;20140;-88
2024/04/26 01:48:04;;;;;;;31.80;16.05;;;-0.20;99.90;;;;;;6474839;22;20009;-87
2024/04/26 01:50:30;;;;;;;35.50;15.85;;;-0.20;99.90;;;;;;6474105;22;20013;-87
2024/04/26 01:52:56;;;;;;;31.67;15.80;;;-0.20;99.90;;;;;;6474934;22;20002;-84
2024/04/26 01:55:21;;;;;;;34.38;17.92;;;-0.30;99.90;;;;;;6474665;22;20017;-84
2024/04/26 01:57:47;;;;;;;40.88;19.02;;;-0.30;99.90;;;;;;6429977;22;20360;-84
2024/04/26 02:00:13;;;;;;;42.55;18.05;;;-0.40;99.90;;;;;;6474195;22;20297;-84
2024/04/26 02:02:39;;;;;;;38.03;18.02;;;-0.30;99.90;;;;;;6474425;22;20297;-84
2024/04/26 02:05:05;;;;;;;37.42;17.08;;;-0.40;99.90;;;;;;6475495;22;20424;-84
2024/04/26 02:07:31;;;;;;;44.30;19.92;;;-0.40;99.90;;;;;;6472989;22;20017;-85
2024/04/26 02:10:00;;;;;;;42.40;20.00;;;-0.40;99.90;;;;;;6473840;22;20018;-85
2024/04/26 02:12:26;;;;;;;36.10;17.67;;;-0.40;99.90;;;;;;6474171;22;20010;-85
2024/04/26 02:14:51;;;;;;;30.33;15.55;;;-0.40;99.90;;;;;;6473479;22;20084;-85
2024/04/26 02:17:17;;;;;;;29.98;15.93;;;-0.40;99.90;;;;;;6475141;22;20383;-82
2024/04/26 02:19:43;;;;;;;34.22;16.45;;;-0.40;99.90;;;;;;6430223;22;20049;-82
2024/04/26 02:22:09;;;;;;;33.03;17.15;;;-0.40;99.90;;;;;;6430038;22;20073;-82
2024/04/26 02:24:34;;;;;;;34.65;15.70;;;-0.50;99.90;;;;;;6474019;22;20431;-84
2024/04/26 02:27:00;;;;;;;31.70;14.80;;;-0.50;99.90;;;;;;6474128;22;20017;-84
2024/04/26 02:29:26;;;;;;;33.80;16.80;;;-0.50;99.90;;;;;;6474337;22;20001;-83
2024/04/26 02:31:52;;;;;;;33.80;16.60;;;-0.60;99.90;;;;;;6474658;22;20016;-82
2024/04/26 02:34:18;;;;;;;30.10;14.35;;;-0.60;99.90;;;;;;6474252;22;20006;-81
2024/04/26 02:36:44;;;;;;;28.88;14.40;;;-0.60;99.90;;;;;;6429535;22;20013;-82
2024/04/26 02:39:10;;;;;;;25.27;14.82;;;-0.60;99.90;;;;;;6474083;22;20002;-82
2024/04/26 02:41:35;;;;;;;25.05;13.52;;;-0.70;99.90;;;;;;6474083;22;20421;-81
2024/04/26 02:44:05;;;;;;;23.73;13.52;;;-0.70;99.90;;;;;;6430679;22;20400;-81
2024/04/26 02:46:34;;;;;;;32.20;16.50;;;-0.70;99.90;;;;;;6474234;22;20347;-84
2024/04/26 02:49:06;;;;;;;27.30;15.48;;;-0.70;99.90;;;;;;6474069;22;20005;-80
2024/04/26 02:51:32;;;;;;;30.23;15.20;;;-0.70;99.90;;;;;;6429770;22;20006;-80
2024/04/26 02:53:57;;;;;;;25.67;13.60;;;-0.80;99.90;;;;;;6472853;22;20021;-80
2024/04/26 02:56:24;;;;;;;22.67;12.15;;;-0.80;99.90;;;;;;6474066;22;20420;-80
2024/04/26 02:58:49;;;;;;;23.67;13.48;;;-0.80;99.90;;;;;;6429996;22;20008;-80
2024/04/26 03:01:15;;;;;;;27.30;12.00;;;-0.80;99.90;;;;;;6474073;22;20305;-80
2024/04/26 03:03:44;;;;;;;24.67;12.23;;;-0.90;99.90;;;;;;6429697;22;20005;-80
2024/04/26 03:06:11;;;;;;;25.45;13.55;;;-0.80;99.90;;;;;;6473730;22;20012;-80
2024/04/26 03:08:37;;;;;;;22.98;11.25;;;-0.80;99.90;;;;;;6473756;22;20034;-80
2024/04/26 03:11:05;;;;;;;18.80;11.57;;;-0.90;99.90;;;;;;6474788;22;19994;-80
2024/04/26 03:13:32;;;;;;;22.35;11.63;;;-0.80;99.90;;;;;;6429833;22;20080;-80
2024/04/26 03:15:58;;;;;;;19.15;11.45;;;-0.90;99.90;;;;;;6473925;22;20010;-81
2024/04/26 03:18:24;;;;;;;22.75;11.90;;;-0.80;99.90;;;;;;6473538;22;20006;-81
2024/04/26 03:20:51;;;;;;;19.83;11.82;;;-0.80;99.90;;;;;;6474128;22;20304;-80
2024/04/26 03:23:17;;;;;;;23.77;11.57;;;-0.80;99.90;;;;;;6474295;22;20030;-80
2024/04/26 03:25:43;;;;;;;20.33;11.40;;;-0.80;99.90;;;;;;6429514;22;20685;-80
2024/04/26 03:28:09;;;;;;;19.58;11.70;;;-0.80;99.90;;;;;;6473879;22;20002;-80
2024/04/26 03:30:34;;;;;;;18.52;11.75;;;-0.80;99.90;;;;;;6473898;22;20096;-80
2024/04/26 03:33:02;;;;;;;24.63;12.77;;;-0.80;99.90;;;;;;6473785;22;20084;-80
2024/04/26 03:35:27;;;;;;;24.05;12.90;;;-0.80;99.90;;;;;;6474117;22;20033;-81
2024/04/26 03:37:53;;;;;;;21.35;11.93;;;-0.80;99.90;;;;;;6474742;22;20301;-84
2024/04/26 03:40:18;;;;;;;18.20;11.70;;;-0.80;99.90;;;;;;6474250;22;20006;-84
2024/04/26 03:42:44;;;;;;;22.98;11.88;;;-0.80;99.90;;;;;;6474164;22;20014;-83
2024/04/26 03:45:10;;;;;;;30.05;12.35;;;-0.80;99.90;;;;;;6473969;22;20018;-82
2024/04/26 03:47:35;;;;;;;23.77;13.63;;;-0.80;99.90;;;;;;6473488;22;20008;-83
2024/04/26 03:50:01;;;;;;;24.85;13.23;;;-0.80;99.90;;;;;;6432053;22;20017;-82
2024/04/26 03:52:27;;;;;;;24.42;12.27;;;-0.80;99.90;;;;;;6478498;22;20021;-83
2024/04/26 03:54:53;;;;;;;24.30;13.40;;;-0.80;99.90;;;;;;6478238;22;20009;-83
2024/04/26 03:57:19;;;;;;;28.77;13.88;;;-0.90;99.90;;;;;;6434948;22;20054;-82
2024/04/26 03:59:44;;;;;;;24.80;12.80;;;-0.90;99.90;;;;;;6474874;22;20002;-83
2024/04/26 04:02:10;;;;;;;27.17;13.05;;;-0.80;99.90;;;;;;6474301;22;19997;-83
2024/04/26 04:04:36;;;;;;;25.85;13.13;;;-0.70;99.90;;;;;;6473558;22;20483;-83
2024/04/26 04:07:02;;;;;;;27.63;13.32;;;-0.50;99.90;;;;;;6474109;22;20014;-83
2024/04/26 04:09:27;;;;;;;23.15;12.52;;;-0.40;99.90;;;;;;6429470;22;20002;-82
2024/04/26 04:11:53;;;;;;;26.70;13.15;;;-0.20;99.90;;;;;;6429237;22;20009;-82
2024/04/26 04:14:19;;;;;;;18.42;11.85;;;-0.10;99.90;;;;;;6474839;22;19998;-85
2024/04/26 04:16:45;;;;;;;21.85;11.73;;;0.00;99.90;;;;;;6473391;22;20009;-84
2024/04/26 04:19:10;;;;;;;27.52;12.82;;;0.20;99.90;;;;;;6431422;22;20042;-83
2024/04/26 04:21:36;;;;;;;21.23;10.90;;;0.30;99.90;;;;;;6476175;22;20006;-83
2024/04/26 04:24:02;;;;;;;23.77;11.43;;;0.40;99.90;;;;;;6475493;22;20339;-83
2024/04/26 04:26:27;;;;;;;19.38;11.77;;;0.60;99.90;;;;;;6430590;22;20065;-84
2024/04/26 04:28:54;;;;;;;24.90;12.30;;;0.70;99.90;;;;;;6474409;22;20061;-80
2024/04/26 04:31:20;;;;;;;27.65;12.23;;;0.80;99.90;;;;;;6476379;22;20006;-84
2024/04/26 04:33:45;;;;;;;23.33;12.98;;;0.90;99.90;;;;;;6431301;22;20046;-83
2024/04/26 04:36:11;;;;;;;24.02;13.18;;;1.00;99.90;;;;;;6475445;22;20005;-80
2024/04/26 04:38:37;;;;;;;20.20;11.68;;;1.20;99.90;;;;;;6431540;22;19998;-83
2024/04/26 04:41:03;;;;;;;19.85;11.90;;;1.30;99.90;;;;;;6433191;22;19999;-80
2024/04/26 04:43:28;;;;;;;24.27;11.57;;;1.40;99.90;;;;;;6476526;22;20002;-82
2024/04/26 04:45:54;;;;;;;21.10;11.57;;;1.50;99.90;;;;;;6476425;22;20372;-83
2024/04/26 04:48:21;;;;;;;23.02;14.00;;;1.40;99.90;;;;;;6476389;22;20017;-82
2024/04/26 04:50:47;;;;;;;20.17;11.73;;;1.50;99.90;;;;;;6475509;22;20397;-83
2024/04/26 04:53:13;;;;;;;22.98;12.57;;;1.50;99.90;;;;;;6477217;22;20005;-85
2024/04/26 04:55:38;;;;;;;26.83;13.25;;;1.60;99.90;;;;;;6474245;22;20709;-81
2024/04/26 04:58:04;;;;;;;25.90;13.48;;;1.60;99.90;;;;;;6476255;22;20013;-83
2024/04/26 05:00:30;;;;;;;28.58;14.45;;;1.70;99.90;;;;;;6476663;22;20094;-83
2024/04/26 05:02:55;;;;;;;26.83;13.48;;;1.80;99.90;;;;;;6473952;22;20289;-83
2024/04/26 05:05:22;;;;;;;21.15;12.18;;;1.90;99.90;;;;;;6472861;22;20005;-83
2024/04/26 05:07:47;;;;;;;21.15;12.13;;;2.00;99.90;;;;;;6476859;22;20017;-85
2024/04/26 05:10:13;;;;;;;19.27;12.38;;;2.10;99.90;;;;;;6476386;22;20005;-81
2024/04/26 05:12:39;;;;;;;20.77;12.52;;;2.30;99.90;;;;;;6473676;22;20006;-83
2024/04/26 05:15:06;;;;;;;21.10;10.98;;;2.40;99.90;;;;;;6432267;22;20464;-80
2024/04/26 05:17:33;;;;;;;22.20;12.05;;;2.60;99.90;;;;;;6471855;22;20049;-81
2024/04/26 05:19:58;;;;;;;20.83;11.13;;;2.70;99.90;;;;;;6473457;22;20001;-86
2024/04/26 05:22:24;;;;;;;21.63;11.07;;;2.90;99.90;;;;;;6475774;22;20020;-85
2024/04/26 05:24:50;;;;;;;18.90;10.57;;;3.00;99.90;;;;;;6473988;22;20076;-86
2024/04/26 05:27:17;;;;;;;19.35;11.20;;;3.20;99.90;;;;;;6476332;22;20017;-82
2024/04/26 05:29:44;;;;;;;23.73;13.55;;;3.40;99.90;;;;;;6475789;22;20077;-83
2024/04/26 05:32:10;;;;;;;18.70;12.05;;;3.60;99.90;;;;;;6476709;22;19998;-81
2024/04/26 05:34:36;;;;;;;18.77;11.10;;;3.80;99.90;;;;;;6474810;22;20034;-89
2024/04/26 05:37:02;;;;;;;19.60;12.25;;;4.00;99.90;;;;;;6476013;22;20420;-81
2024/04/26 05:39:28;;;;;;;18.42;11.10;;;4.30;99.90;;;;;;6475989;22;20005;-86
2024/04/26 05:41:54;;;;;;;17.20;10.00;;;4.50;99.90;;;;;;6470362;22;20018;-85
2024/04/26 05:44:19;;;;;;;14.30;9.60;;;4.80;99.90;;;;;;6470500;22;19994;-85
2024/04/26 05:46:45;;;;;;;10.45;7.40;;;5.00;99.90;;;;;;6470941;22;20016;-83
2024/04/26 05:49:11;;;;;;;11.30;7.03;;;5.20;99.90;;;;;;6469108;22;20030;-83
2024/04/26 05:51:37;;;;;;;7.40;6.22;;;5.50;99.90;;;;;;6472150;22;20316;-83
2024/04/26 05:54:04;;;;;;;9.07;6.18;;;5.70;99.90;;;;;;6474572;22;20006;-82
2024/04/26 05:56:31;;;;;;;9.38;6.10;;;5.90;99.90;;;;;;6474168;22;19998;-83
2024/04/26 05:58:56;;;;;;;8.95;5.60;;;6.10;99.90;;;;;;6472963;22;20012;-83
2024/04/26 06:01:22;;;;;;;8.30;5.22;;;6.40;96.40;;;;;;6474771;22;20006;-82
2024/04/26 06:03:48;;;;;;;5.50;4.80;;;6.60;91.90;;;;;;6472379;22;20203;-82
2024/04/26 06:06:14;;;;;;;5.97;5.13;;;6.80;88.70;;;;;;6474301;22;20042;-83
2024/04/26 06:08:40;;;;;;;11.05;5.32;;;7.00;85.70;;;;;;6471971;22;20002;-82
2024/04/26 06:11:06;;;;;;;5.55;3.88;;;7.20;84.90;;;;;;6472321;22;20005;-83
2024/04/26 06:13:32;;;;;;;4.53;4.07;;;7.40;81.90;;;;;;6474214;22;20002;-82
2024/04/26 06:15:57;;;;;;;5.85;4.18;;;7.60;78.10;;;;;;6514889;22;20012;-82
2024/04/26 06:18:23;;;;;;;6.03;3.38;;;7.80;78.80;;;;;;6474495;22;20006;-82
2024/04/26 06:20:49;;;;;;;6.32;3.67;;;7.90;76.90;;;;;;6474278;22;20001;-81
2024/04/26 06:23:14;;;;;;;7.13;3.50;;;8.10;75.10;;;;;;6472819;22;20413;-82
2024/04/26 06:25:40;;;;;;;3.90;3.50;;;8.30;74.70;;;;;;6471692;22;20006;-82
2024/04/26 06:28:06;;;;;;;6.70;3.63;;;8.40;73.60;;;;;;6472006;22;20005;-82
2024/04/26 06:30:31;;;;;;;4.97;3.58;;;8.60;72.90;;;;;;6474289;22;20416;-82
2024/04/26 06:32:57;;;;;;;4.97;3.58;;;8.70;72.40;;;;;;6474329;22;20421;-82
2024/04/26 06:35:23;;;;;;;4.20;2.88;;;8.80;71.70;;;;;;6473966;22;20420;-80
2024/04/26 06:37:48;;;;;;;5.95;3.22;;;9.00;72.10;;;;;;6474485;22;20429;-81
2024/04/26 06:40:14;;;;;;;2.55;2.35;;;9.20;71.50;;;;;;6474052;22;20009;-81
2024/04/26 06:42:40;;;;;;;6.07;2.65;;;9.30;68.80;;;;;;6474057;22;20010;-81
2024/04/26 06:45:05;;;;;;;3.80;2.75;;;9.30;67.90;;;;;;6429599;22;20006;-81
2024/04/26 06:47:31;;;;;;;4.95;2.25;;;9.50;68.00;;;;;;6473847;22;20009;-80
2024/04/26 06:49:57;;;;;;;4.55;2.53;;;9.50;66.50;;;;;;6472704;22;20001;-81
2024/04/26 06:52:22;;;;;;;4.38;2.50;;;9.70;66.60;;;;;;6471892;22;20001;-81
2024/04/26 06:54:48;;;;;;;3.08;2.40;;;9.80;65.60;;;;;;6470582;22;20009;-79
2024/04/26 06:57:14;;;;;;;3.42;2.65;;;9.90;65.20;;;;;;6471420;22;20353;-79
2024/04/26 06:59:39;;;;;;;7.18;2.50;;;10.00;64.80;;;;;;6472548;22;20011;-78
2024/04/26 07:02:06;;;;;;;5.05;2.78;;;10.20;64.60;;;;;;6472417;22;20009;-78
2024/04/26 07:04:32;;;;;;;4.28;3.08;;;10.30;64.30;;;;;;6473732;22;20006;-79
2024/04/26 07:06:58;;;;;;;3.42;2.45;;;10.30;63.60;;;;;;6429464;22;20002;-79
2024/04/26 07:09:23;;;;;;;3.25;2.80;;;10.40;61.70;;;;;;6429107;22;20010;-78
2024/04/26 07:11:49;;;;;;;5.45;2.95;;;10.70;62.20;;;;;;6473401;22;20005;-82
2024/04/26 07:14:15;;;;;;;4.45;2.85;;;10.90;62.80;;;;;;6474181;22;20004;-78
2024/04/26 07:16:41;;;;;;;4.38;2.15;;;11.00;63.30;;;;;;6474410;22;20006;-78
2024/04/26 07:19:07;;;;;;;5.30;3.30;;;11.10;61.30;;;;;;6473980;22;20464;-79
2024/04/26 07:21:33;;;;;;;5.40;2.83;;;11.30;63.10;;;;;;6473231;22;20005;-78
2024/04/26 07:23:59;;;;;;;3.05;1.80;;;11.30;60.60;;;;;;6428887;22;20360;-80
2024/04/26 07:26:26;;;;;;;4.13;1.83;;;11.50;61.90;;;;;;6473091;22;20005;-79
2024/04/26 07:28:51;;;;;;;2.45;2.00;;;11.60;60.50;;;;;;6474587;22;20014;-79
2024/04/26 07:31:17;;;;;;;2.50;2.30;;;11.60;59.20;;;;;;6473273;22;20010;-78
2024/04/26 07:33:43;;;;;;;4.28;1.80;;;11.70;58.60;;;;;;6473612;22;20025;-78
2024/04/26 07:36:09;;;;;;;2.38;1.83;;;11.60;58.20;;;;;;6473410;22;20304;-78
2024/04/26 07:38:35;;;;;;;1.88;1.70;;;11.70;58.50;;;;;;6428486;22;19994;-78
2024/04/26 07:41:01;;;;;;;2.08;1.25;;;11.80;59.30;;;;;;6474662;22;19998;-78
2024/04/26 07:43:27;;;;;;;2.20;1.67;;;11.80;58.30;;;;;;6429206;22;20428;-78
2024/04/26 07:45:53;;;;;;;1.73;1.63;;;11.80;57.20;;;;;;6473719;22;20425;-78
2024/04/26 07:48:19;;;;;;;3.10;1.58;;;11.90;56.70;;;;;;6473366;22;20308;-79
2024/04/26 07:50:45;;;;;;;1.63;1.45;;;12.00;57.10;;;;;;6473578;22;20084;-79
2024/04/26 07:53:12;;;;;;;2.08;1.50;;;12.00;57.30;;;;;;6475684;22;20375;-78
2024/04/26 07:55:39;;;;;;;1.63;1.45;;;12.00;56.20;;;;;;6475625;22;20419;-78
2024/04/26 07:58:08;;;;;;;1.27;1.20;;;12.20;56.80;;;;;;6475697;22;20084;-79
2024/04/26 08:00:33;;;;;;;4.57;2.17;;;12.30;55.50;;;;;;6431252;22;20017;-80
2024/04/26 08:03:00;;;;;;;1.17;1.17;;;12.30;55.40;;;;;;6430511;22;20060;-80
2024/04/26 08:05:26;;;;;;;1.90;1.40;;;12.40;56.10;;;;;;6476114;22;20035;-80
2024/04/26 08:07:51;;;;;;;2.60;2.22;;;12.60;55.10;;;;;;6473704;22;19998;-79
2024/04/26 08:10:17;;;;;;;2.10;1.60;;;12.70;55.00;;;;;;6475619;22;20006;-79
2024/04/26 08:12:43;;;;;;;2.67;1.85;;;12.80;54.30;;;;;;6475386;22;20010;-80
2024/04/26 08:15:09;;;;;;;2.55;1.70;;;12.70;52.80;;;;;;6475125;22;20017;-78
2024/04/26 08:17:36;;;;;;;4.88;2.35;;;12.80;53.30;;;;;;6475333;22;19998;-78
2024/04/26 08:20:02;;;;;;;2.97;1.77;;;12.90;54.00;;;;;;6476188;22;20001;-79
2024/04/26 08:22:28;;;;;;;2.03;1.83;;;13.00;53.70;;;;;;6474911;22;20009;-79
2024/04/26 08:24:53;;;;;;;1.95;1.38;;;13.20;53.00;;;;;;6475346;22;20016;-78
2024/04/26 08:27:19;;;;;;;2.85;1.80;;;13.30;53.30;;;;;;6475386;22;20076;-79
2024/04/26 08:29:46;;;;;;;4.30;2.00;;;13.30;51.40;;;;;;6475470;22;20441;-79
2024/04/26 08:32:12;;;;;;;1.50;1.40;;;13.30;50.50;;;;;;6476232;22;19997;-79
2024/04/26 08:34:40;;;;;;;3.40;2.13;;;13.30;51.40;;;;;;6475440;22;20016;-80
2024/04/26 08:37:06;;;;;;;2.15;1.95;;;13.30;51.90;;;;;;6475242;22;20002;-80
2024/04/26 08:39:31;;;;;;;3.40;2.05;;;13.30;51.50;;;;;;6430486;22;20491;-79
2024/04/26 08:41:59;;;;;;;4.70;2.55;;;13.40;52.20;;;;;;6474929;22;20009;-83
2024/04/26 08:44:24;;;;;;;3.20;1.83;;;13.40;52.00;;;;;;6474894;22;20039;-80
2024/04/26 08:46:53;;;;;;;2.63;1.98;;;13.50;51.60;;;;;;6390426;22;19998;-84
2024/04/26 08:49:20;;;;;;;2.80;2.10;;;13.60;50.80;;;;;;6475219;22;20016;-83
2024/04/26 08:51:51;;;;;;;2.05;1.48;;;13.50;50.00;;;;;;6473312;22;20353;-78
2024/04/26 08:54:18;;;;;;;4.07;2.15;;;13.50;49.60;;;;;;6428965;22;20029;-79
2024/04/26 08:56:45;;;;;;;3.22;2.40;;;13.50;50.60;;;;;;6474089;22;20032;-80
2024/04/26 08:59:15;;;;;;;3.83;1.60;;;13.40;52.10;;;;;;6475142;22;20001;-79
2024/04/26 09:01:42;;;;;;;2.03;1.83;;;13.50;50.60;;;;;;6474992;22;20009;-87
2024/04/26 09:04:08;;;;;;;1.65;1.55;;;13.80;49.20;;;;;;6475118;22;20013;-87
2024/04/26 09:06:35;;;;;;;2.00;1.80;;;13.80;50.20;;;;;;6475011;22;20009;-82
2024/04/26 09:09:01;;;;;;;2.47;1.60;;;13.70;50.60;;;;;;6474904;22;20408;-83
2024/04/26 09:11:27;;;;;;;1.10;1.10;;;13.40;50.10;;;;;;6475106;22;19998;-83
2024/04/26 09:13:53;;;;;;;1.35;1.25;;;13.50;49.40;;;;;;6475744;22;20420;-83
2024/04/26 09:16:20;;;;;;;1.05;1.05;;;13.80;49.90;;;;;;6474984;22;20001;-87
2024/04/26 09:18:45;;;;;;;1.10;1.00;;;14.10;48.60;;;;;;6474663;22;20559;-84
2024/04/26 09:21:11;;;;;;;1.88;1.40;;;14.30;47.10;;;;;;6431292;22;20010;-85
2024/04/26 09:23:37;;;;;;;2.25;1.50;;;14.00;45.70;;;;;;6474594;22;20344;-81
2024/04/26 09:26:05;;;;;;;1.65;1.50;;;14.00;46.00;;;;;;6475407;22;19998;-85
2024/04/26 09:28:31;;;;;;;1.60;1.45;;;13.70;46.50;;;;;;6475196;22;20024;-87
2024/04/26 09:30:57;;;;;;;3.10;1.50;;;13.70;46.40;;;;;;6475145;22;20088;-87
2024/04/26 09:33:24;;;;;;;1.60;1.50;;;13.50;46.70;;;;;;6475025;22;20006;-86
2024/04/26 09:35:52;;;;;;;1.92;1.83;;;13.70;48.40;;;;;;6474846;22;20077;-86
2024/04/26 09:38:22;;;;;;;2.00;1.80;;;13.40;49.00;;;;;;6475124;22;20113;-85
2024/04/26 09:40:48;;;;;;;2.50;1.67;;;13.40;48.40;;;;;;6474437;22;20017;-86
2024/04/26 09:43:16;;;;;;;3.92;1.55;;;13.50;47.80;;;;;;6474035;22;20014;-85
2024/04/26 09:45:43;;;;;;;3.67;1.67;;;13.50;49.50;;;;;;6429141;22;20080;-88
2024/04/26 09:48:10;;;;;;;2.75;1.52;;;13.50;49.00;;;;;;6477399;22;20010;-80
2024/04/26 09:50:37;;;;;;;1.85;1.70;;;13.50;49.20;;;;;;6474083;22;20013;-80
2024/04/26 09:53:05;;;;;;;1.67;1.58;;;13.80;47.60;;;;;;6470628;22;20002;-82
2024/04/26 09:55:32;;;;;;;3.55;1.40;;;13.60;46.90;;;;;;6428647;22;20009;-81
2024/04/26 09:57:58;;;;;;;3.97;2.10;;;13.80;46.70;;;;;;6471407;22;20012;-82
2024/04/26 10:00:27;;;;;;;1.60;1.50;;;13.90;47.50;;;;;;6473136;22;20021;-81
2024/04/26 10:02:57;;;;;;;1.23;1.13;;;13.80;46.20;;;;;;6472847;22;20029;-81
2024/04/26 10:05:24;;;;;;;1.65;1.30;;;13.80;47.70;;;;;;6474511;22;20006;-80
2024/04/26 10:08:04;;;;;;;3.13;1.50;;;13.60;47.50;;;;;;6474795;22;20008;-81
2024/04/26 10:10:31;;;;;;;3.88;1.90;;;13.60;48.00;;;;;;6469580;22;20006;-85
2024/04/26 10:13:03;;;;;;;2.38;1.70;;;13.40;47.60;;;;;;6472800;22;20006;-86
2024/04/26 10:15:29;;;;;;;1.17;1.15;;;13.30;46.80;;;;;;6471983;22;20029;-86
2024/04/26 10:17:55;;;;;;;2.90;1.75;;;13.70;46.80;;;;;;6471263;22;20027;-85
2024/04/26 10:20:21;;;;;;;1.73;1.50;;;14.20;48.80;;;;;;6426147;22;20073;-81
2024/04/26 10:23:10;;;;;;;1.40;1.15;;;14.20;47.30;;;;;;6471243;22;20708;-82
2024/04/26 10:25:36;;;;;;;2.63;1.60;;;14.60;47.10;;;;;;6426085;22;20103;-80
2024/04/26 10:28:09;;;;;;;3.28;1.40;;;15.00;47.40;;;;;;6471642;22;20006;-81
2024/04/26 10:30:35;;;;;;;3.33;1.10;;;15.00;45.50;;;;;;6427005;22;20076;-83
2024/04/26 10:33:02;;;;;;;1.85;1.35;;;15.00;44.80;;;;;;6470563;22;20227;-83
2024/04/26 10:35:28;;;;;;;2.58;1.50;;;15.40;45.60;;;;;;6469742;22;19994;-82
2024/04/26 10:37:58;;;;;;;2.05;1.70;;;15.60;45.10;;;;;;6469626;22;20428;-85
2024/04/26 10:40:24;;;;;;;2.45;1.50;;;15.50;44.80;;;;;;6469985;22;20002;-82
2024/04/26 10:42:49;;;;;;;1.40;1.30;;;15.20;43.30;;;;;;6471735;22;20424;-85
2024/04/26 10:45:15;;;;;;;2.40;1.70;;;14.80;42.70;;;;;;6456197;22;20093;-85
2024/04/26 10:47:41;;;;;;;5.20;2.97;;;14.70;43.70;;;;;;6450621;22;20017;-82
2024/04/26 10:50:06;;;;;;;1.67;1.13;;;14.70;44.70;;;;;;6470460;22;19997;-81
2024/04/26 10:52:32;;;;;;;1.30;1.20;;;14.50;44.90;;;;;;6471895;22;20013;-81
2024/04/26 10:54:58;;;;;;;2.80;1.45;;;14.50;44.90;;;;;;6428442;22;20002;-88
2024/04/26 10:57:25;;;;;;;2.70;1.30;;;14.50;45.30;;;;;;6464287;22;20471;-89
2024/04/26 11:00:01;;;;;;;1.30;1.20;;;14.30;45.10;;;;;;6472210;22;20002;-88
2024/04/26 11:02:27;;;;;;;2.78;1.27;;;14.30;46.30;;;;;;6471326;22;20017;-85
2024/04/26 11:05:06;;;;;;;2.72;1.30;;;14.30;46.70;;;;;;6427267;22;20052;-88
2024/04/26 11:07:32;;;;;;;2.63;1.67;;;14.80;46.90;;;;;;6425969;22;20076;-83
2024/04/26 11:09:58;;;;;;;1.27;1.13;;;15.20;46.20;;;;;;6418383;22;20002;-85
2024/04/26 11:12:24;;;;;;;2.28;1.13;;;15.00;45.60;;;;;;6465370;22;20304;-83
2024/04/26 11:14:50;;;;;;;2.33;1.15;;;14.80;46.00;;;;;;6428485;22;20016;-81
2024/04/26 11:17:15;;;;;;;1.25;1.20;;;14.60;45.70;;;;;;6429312;22;20005;-81
2024/04/26 11:19:43;;;;;;;4.53;1.33;;;14.50;45.20;;;;;;6472714;22;19997;-78
2024/04/26 11:22:09;;;;;;;1.77;1.20;;;14.40;47.00;;;;;;6471855;22;20774;-79
2024/04/26 11:24:35;;;;;;;2.17;1.65;;;14.60;47.60;;;;;;6472046;22;20380;-81
2024/04/26 11:27:06;;;;;;;2.08;1.50;;;14.70;47.90;;;;;;6428999;22;20006;-81
2024/04/26 11:29:33;;;;;;;2.83;1.48;;;14.70;48.10;;;;;;6475291;22;20073;-83
2024/04/26 11:31:58;;;;;;;1.40;1.30;;;14.60;47.10;;;;;;6430612;22;20005;-84
2024/04/26 11:34:24;;;;;;;2.30;1.83;;;14.60;47.10;;;;;;6474731;22;20017;-81
2024/04/26 11:36:53;;;;;;;1.92;1.70;;;14.50;47.40;;;;;;6431404;22;20001;-79
2024/04/26 11:39:18;;;;;;;1.60;1.30;;;14.60;48.40;;;;;;6474722;22;20002;-80
2024/04/26 11:41:44;;;;;;;1.65;1.50;;;14.80;48.00;;;;;;6475118;22;20021;-81
2024/04/26 11:44:10;;;;;;;2.67;1.50;;;15.20;47.80;;;;;;6475612;22;19994;-79
2024/04/26 11:46:36;;;;;;;1.90;1.58;;;15.40;47.10;;;;;;6475326;22;20002;-79
2024/04/26 11:49:01;;;;;;;2.47;1.67;;;15.70;47.00;;;;;;6473543;22;20080;-80
2024/04/26 11:51:28;;;;;;;1.33;1.25;;;15.80;47.00;;;;;;6474736;22;20440;-82
2024/04/26 11:53:57;;;;;;;1.80;1.67;;;15.40;45.70;;;;;;6474076;22;20089;-82
2024/04/26 11:56:24;;;;;;;2.53;1.25;;;15.10;46.50;;;;;;6473844;22;19997;-81
2024/04/26 11:58:51;;;;;;;2.47;1.58;;;14.90;46.10;;;;;;6473966;22;20506;-80
2024/04/26 12:01:16;;;;;;;1.63;1.40;;;14.90;46.10;;;;;;6474962;22;20017;-86
2024/04/26 12:03:42;;;;;;;1.67;1.40;;;15.40;47.50;;;;;;6431380;22;20416;-84
2024/04/26 12:06:12;;;;;;;1.42;1.33;;;15.70;46.90;;;;;;6388752;22;20069;-85
2024/04/26 12:08:37;;;;;;;2.67;1.50;;;15.80;46.90;;;;;;6431521;22;20004;-85
2024/04/26 12:11:03;;;;;;;1.52;1.42;;;15.60;46.70;;;;;;6476726;22;19997;-86
2024/04/26 12:13:29;;;;;;;2.33;1.65;;;15.50;45.90;;;;;;6473523;22;20353;-86
2024/04/26 12:15:54;;;;;;;1.20;1.10;;;15.30;46.20;;;;;;6474880;22;20001;-85
2024/04/26 12:18:20;;;;;;;1.40;1.15;;;15.40;45.90;;;;;;6430905;22;20304;-85
2024/04/26 12:20:46;;;;;;;2.17;1.40;;;15.50;46.40;;;;;;6474758;22;20049;-85
2024/04/26 12:23:11;;;;;;;2.92;1.25;;;15.50;45.90;;;;;;6475511;22;20005;-86
2024/04/26 12:25:37;;;;;;;2.97;1.30;;;15.50;46.00;;;;;;6474459;22;20076;-85
2024/04/26 12:28:08;;;;;;;2.80;2.03;;;15.40;46.00;;;;;;6474294;22;20013;-81
2024/04/26 12:30:35;;;;;;;2.15;1.23;;;15.60;46.40;;;;;;6430353;22;20009;-85
2024/04/26 12:33:01;;;;;;;2.72;1.48;;;15.50;45.30;;;;;;6474561;22;20017;-84
2024/04/26 12:35:32;;;;;;;2.38;1.52;;;15.50;45.20;;;;;;6474561;22;20002;-84